ブルネイ国際空港の過去48時間の天気

ブルネイ国際空港 (Brunei Airport)

現在時刻: 1/21 12:09 +08 (1/21 04:09 UTC) 以下の時間は現地時間です。

過去48時間のMETAR気象情報
時間 風向 風速(m/s) 視程 気温(℃) 湿度(%) 気圧(hPa) 天気現象
21 11:30 東北東 3 10km以上 32 59 1014
21 11:00 東北東 4 10km以上 31 66 1014
21 10:30 東北東 3 10km以上 31 66 1014
21 10:00 2 10km以上 30 79 1015
21 09:30 東南東 2 10km以上 30 79 1015
21 09:00 2 9000m 29 84 1014
21 08:30 2 8000m 28 89 1014
21 08:00 南南西 2 8000m 27 94 1014
21 07:30 南南西 1 8000m 27 89 1013
21 07:00 南南西 1 9000m 27 89 1013
21 06:30 1 9000m 27 89 1013
21 06:00 南南西 1 9000m 27 94 1012
21 05:30 西南西 1 9000m 27 94 1012
21 05:00 1 9000m 27 94 1012
21 04:30 東北東 1 9000m 27 94 1012
21 04:00 北北東 1 9000m 27 94 1012
21 03:30 北北東 2 9000m 27 94 1012
21 03:00 1 9000m 27 94 1012
21 02:30 2 9000m 27 89 1012
21 02:00 2 9000m 27 89 1012
21 01:30 北北東 2 9000m 27 89 1013
21 01:00 北北東 2 9000m 28 84 1013
21 00:30 北北東 3 9000m 28 84 1013
21 00:00 北北東 3 9000m 28 84 1013
20 23:30 北北東 2 9000m 28 84 1013
20 23:00 北北東 3 9000m 28 84 1013
20 22:30 北北東 3 9000m 28 89 1013
20 22:00 北北東 4 9000m 28 89 1013
20 21:30 北北東 3 9000m 28 89 1013
20 21:00 北北東 5 9000m 28 89 1013
20 20:30 北北東 3 9000m 28 89 1012
20 20:00 北北東 4 9000m 28 89 1012
20 19:30 北北東 4 9000m 28 84 1012
20 19:00 3 9000m 28 84 1011
20 18:30 3 9000m 29 79 1011
20 18:00 3 9000m 29 79 1010
20 17:30 4 9000m 29 79 1010
20 17:00 4 10km以上 30 75 1010
20 16:30 4 10km以上 30 75 1010
20 16:00 3 10km以上 30 75 1010
20 15:30 4 10km以上 31 70 1010
20 15:00 北北西 3 10km以上 31 70 1010
20 14:30 北北東 4 10km以上 31 66 1010
20 14:00 北北東 6 10km以上 32 56 1011
20 13:30 北北東 6 10km以上 32 59 1011
20 13:00 東北東 7 10km以上 33 53 1011
20 12:30 北東 7 10km以上 32 59 1012
20 12:00 北東 7 10km以上 32 56 1012
20 11:30 東北東 6 10km以上 31 59 1012
20 11:00 東北東 7 10km以上 31 59 1012
20 10:30 東北東 6 10km以上 31 62 1013
20 10:00 東北東 5 10km以上 30 66 1013
20 09:30 北東 5 10km以上 30 66 1013
20 09:00 北東 3 10km以上 29 74 1013
20 08:30 北東 3 10km以上 28 79 1012
20 08:00 北北東 2 10km以上 27 89 1012
20 07:30 北北西 1 10km以上 26 94 1012
20 07:00 北北西 1 10km以上 26 94 1011
20 06:30 北西 1 10km以上 26 94 1011
20 06:00 1 10km以上 26 94 1011
20 05:30 南南西 1 10km以上 26 94 1011
20 05:00 1 10km以上 26 94 1010 弱い雨
20 04:30 2 9000m 26 94 1010 弱い雨
20 04:00 南西 1 6000m 25 100 1010
20 03:30 南西 1 9000m 26 94 1010 弱い雨
WBSB 210330Z 07006KT 9999 FEW017 BKN300 32/23 Q1014 NOSIG
WBSB 210300Z 06007KT 9999 FEW016 BKN300 31/24 Q1014 NOSIG
WBSB 210230Z 07005KT 9999 FEW016 BKN300 31/24 Q1014 NOSIG
WBSB 210200Z 08003KT 9999 FEW016 BKN300 30/26 Q1015 NOSIG
WBSB 210130Z 11003KT 9999 SCT015 BKN300 30/26 Q1015 NOSIG
WBSB 210100Z 17003KT 9000 SCT015 BKN300 29/26 Q1014 NOSIG
WBSB 210030Z 19004KT 8000 FEW014 BKN300 28/26 Q1014 NOSIG
WBSB 210000Z 21003KT 8000 FEW014 BKN300 27/26 Q1014 NOSIG
WBSB 202330Z 21002KT 8000 FEW014 BKN300 27/25 Q1013 NOSIG
WBSB 202300Z 21002KT 9000 FEW014 BKN300 27/25 Q1013 NOSIG
WBSB 202230Z 18002KT 9000 FEW014 BKN300 27/25 Q1013 NOSIG
WBSB 202200Z 20001KT 9000 FEW014 BKN300 27/26 Q1012 NOSIG
WBSB 202130Z 25001KT 9000 FEW014 BKN300 27/26 Q1012 NOSIG
WBSB 202100Z 08001KT 9000 FEW014 BKN300 27/26 Q1012 NOSIG
WBSB 202030Z 07001KT 9000 FEW014 BKN300 27/26 Q1012 NOSIG
WBSB 202000Z 02001KT 9000 FEW015 BKN300 27/26 Q1012 NOSIG
WBSB 201930Z 02003KT 9000 FEW015 BKN300 27/26 Q1012 NOSIG
WBSB 201900Z 35002KT 9000 FEW015 BKN300 27/26 Q1012 NOSIG
WBSB 201830Z 35003KT 9000 FEW015 BKN300 27/25 Q1012 NOSIG
WBSB 201800Z 01003KT 9000 FEW015 BKN300 27/25 Q1012 NOSIG
WBSB 201730Z 02003KT 9000 FEW015 BKN300 27/25 Q1013 NOSIG
WBSB 201700Z 02004KT 9000 FEW015 BKN300 28/25 Q1013 NOSIG
WBSB 201630Z 03006KT 9000 FEW015 BKN300 28/25 Q1013 NOSIG
WBSB 201600Z 03005KT 9000 FEW015 BKN300 28/25 Q1013 NOSIG
WBSB 201530Z 02004KT 9000 FEW015 BKN300 28/25 Q1013 NOSIG
WBSB 201500Z 03006KT 9000 FEW015 BKN300 28/25 Q1013 NOSIG
WBSB 201430Z 03006KT 9000 SCT015 SCT140 BKN300 28/26 Q1013 NOSIG
WBSB 201400Z 03008KT 9000 SCT015 SCT140 BKN300 28/26 Q1013 NOSIG
WBSB 201330Z 02006KT 9000 SCT015 SCT140 BKN280 28/26 Q1013 NOSIG
WBSB 201300Z 03009KT 9000 SCT015 SCT140 BKN280 28/26 Q1013 NOSIG
WBSB 201230Z 03006KT 9000 SCT015 BKN300 28/26 Q1012 NOSIG
WBSB 201200Z 02007KT 9000 SCT015 BKN300 28/26 Q1012 NOSIG
WBSB 201130Z 02007KT 9000 FEW015 BKN300 28/25 Q1012 NOSIG
WBSB 201100Z 36006KT 9000 FEW015 BKN300 28/25 Q1011 NOSIG
WBSB 201030Z 36005KT 9000 FEW015 BKN300 29/25 Q1011 NOSIG
WBSB 201000Z 35006KT 9000 FEW015 BKN300 29/25 Q1010 NOSIG
WBSB 200930Z 01007KT 9000 FEW015 BKN300 29/25 Q1010 NOSIG
WBSB 200900Z 36007KT 9999 FEW015 BKN300 30/25 Q1010 NOSIG
WBSB 200830Z 36007KT 9999 FEW016 BKN300 30/25 Q1010 NOSIG
WBSB 200800Z 36006KT 9999 FEW016 BKN300 30/25 Q1010 NOSIG
WBSB 200730Z 35007KT 9999 FEW016 BKN300 31/25 Q1010 NOSIG
WBSB 200700Z 33006KT 9999 FEW016 BKN300 31/25 Q1010 NOSIG
WBSB 200630Z 02007KT 9999 FEW016 BKN300 31/24 Q1010 NOSIG
WBSB 200600Z 02012KT 9999 FEW016 BKN300 32/22 Q1011 NOSIG
WBSB 200530Z 02012KT 9999 FEW016 BKN300 32/23 Q1011 NOSIG
WBSB 200500Z 06014KT 9999 FEW016 BKN300 33/22 Q1011 WS ALL RWY NOSIG
WBSB 200430Z 05014KT 9999 FEW016 BKN300 32/23 Q1012 NOSIG
WBSB 200400Z 05014KT 9999 FEW016 BKN300 32/22 Q1012 WS ALL RWY NOSIG
WBSB 200330Z 06011KT 9999 FEW015 BKN300 31/22 Q1012 NOSIG
WBSB 200300Z 06014KT 9999 FEW015 BKN300 31/22 Q1012 NOSIG
WBSB 200230Z 07011KT 9999 FEW015 BKN300 31/23 Q1013 NOSIG
WBSB 200200Z 06010KT 9999 FEW015 BKN300 30/23 Q1013 NOSIG
WBSB 200130Z 05010KT 9999 FEW015 BKN300 30/23 Q1013 NOSIG
WBSB 200100Z 04006KT 9999 FEW015 BKN300 29/24 Q1013 NOSIG
WBSB 200030Z 05005KT 9999 FEW014 BKN300 28/24 Q1012 NOSIG
WBSB 200000Z 02003KT 9999 FEW014 BKN300 27/25 Q1012 NOSIG
WBSB 192330Z 34002KT 9999 FEW014 BKN300 26/25 Q1012 NOSIG
WBSB 192300Z 34002KT 9999 FEW004 BKN300 26/25 Q1011 NOSIG
WBSB 192230Z 32001KT 9999 FEW004 BKN300 26/25 Q1011 NOSIG
WBSB 192200Z 18002KT 9999 FEW004 SCT140 BKN300 26/25 Q1011 RERA NOSIG
WBSB 192130Z 20002KT 9999 FEW004 BKN140 26/25 Q1011 RERA NOSIG
WBSB 192100Z 18002KT 9999 -RA FEW004 BKN150 26/25 Q1010 NOSIG
WBSB 192030Z 18003KT 9000 -RA FEW004 BKN150 26/25 Q1010 NOSIG
WBSB 192000Z 23001KT 6000 RA FEW004 SCT014 BKN150 25/25 Q1010 NOSIG
WBSB 191930Z 22001KT 9000 -RA FEW004 SCT018 BKN150 26/25 Q1010 NOSIG